Time;durP1;ratioP1;P1;durP2;ratioP2;P2;SDS_P1;SDS_P2;PMS_P1;PMS_P2;Temp;Humidity;BMP_temperature;BMP_pressure;BME280_temperature;BME280_humidity;BME280_pressure;Samples;Min_cycle;Max_cycle;Signal;HPM_P1;HPM_P2
2023/04/27 00:01:42;;;;;;;3.13;2.83;;;12.40;84.30;;;;;;5038428;28;20242;-64
2023/04/27 00:04:09;;;;;;;4.50;3.10;;;12.30;84.40;;;;;;5008997;28;20222;-64
2023/04/27 00:06:36;;;;;;;3.57;3.10;;;12.30;84.40;;;;;;5012565;28;20206;-64
2023/04/27 00:09:03;;;;;;;7.83;3.23;;;12.30;84.60;;;;;;5002828;28;20212;-64
2023/04/27 00:11:30;;;;;;;3.80;3.00;;;12.30;84.70;;;;;;5003746;28;20224;-64
2023/04/27 00:13:57;;;;;;;5.00;3.27;;;12.30;84.90;;;;;;5002506;28;20199;-64
2023/04/27 00:16:25;;;;;;;5.47;3.33;;;12.30;85.10;;;;;;5005054;28;20283;-65
2023/04/27 00:18:52;;;;;;;5.27;3.17;;;12.30;85.30;;;;;;5006231;28;20250;-65
2023/04/27 00:21:19;;;;;;;3.37;3.00;;;12.30;85.20;;;;;;5008997;28;20235;-64
2023/04/27 00:23:47;;;;;;;5.73;3.80;;;12.20;84.70;;;;;;5013241;28;20205;-65
2023/04/27 00:26:13;;;;;;;5.77;3.60;;;12.20;84.90;;;;;;5008418;28;20290;-64
2023/04/27 00:28:43;;;;;;;4.80;3.30;;;12.10;85.10;;;;;;5006881;28;20298;-64
2023/04/27 00:31:10;;;;;;;4.27;3.87;;;12.00;85.40;;;;;;5010933;28;20254;-65
2023/04/27 00:33:37;;;;;;;4.20;3.80;;;12.00;85.80;;;;;;5003229;28;20195;-65
2023/04/27 00:36:04;;;;;;;5.27;4.33;;;11.90;86.20;;;;;;5002335;28;20870;-65
2023/04/27 00:38:31;;;;;;;6.13;4.07;;;11.90;86.50;;;;;;5007509;28;20203;-64
2023/04/27 00:41:02;;;;;;;6.13;4.07;;;11.90;86.80;;;;;;5002412;28;20230;-64
2023/04/27 00:43:29;;;;;;;5.43;3.77;;;11.90;87.00;;;;;;5036421;28;20210;-65
2023/04/27 00:45:58;;;;;;;5.27;4.47;;;11.80;87.10;;;;;;5005576;28;20212;-65
2023/04/27 00:48:25;;;;;;;6.90;4.57;;;11.80;87.20;;;;;;5005455;28;20262;-64
2023/04/27 00:50:53;;;;;;;5.77;3.43;;;11.80;87.20;;;;;;5005043;28;20236;-64
2023/04/27 00:53:20;;;;;;;4.03;3.50;;;11.80;87.20;;;;;;5032903;28;20219;-64
2023/04/27 00:55:48;;;;;;;5.70;4.33;;;11.70;87.20;;;;;;5011176;28;20564;-64
2023/04/27 00:58:15;;;;;;;5.07;3.83;;;11.70;87.50;;;;;;5005003;28;20676;-65
2023/04/27 01:00:42;;;;;;;5.97;4.27;;;11.70;87.70;;;;;;5007787;28;20202;-65
2023/04/27 01:03:10;;;;;;;6.77;4.87;;;11.70;87.90;;;;;;5007648;28;20214;-65
2023/04/27 01:05:38;;;;;;;3.87;3.37;;;11.70;88.20;;;;;;5011723;28;20266;-65
2023/04/27 01:08:06;;;;;;;4.10;3.10;;;11.70;88.20;;;;;;5004325;28;20200;-65
2023/04/27 01:10:34;;;;;;;3.90;3.40;;;11.60;87.90;;;;;;5009313;28;20608;-64
2023/04/27 01:13:01;;;;;;;8.20;3.87;;;11.50;87.90;;;;;;5007214;28;20261;-65
2023/04/27 01:15:30;;;;;;;6.37;3.87;;;11.50;88.00;;;;;;5004155;28;20199;-65
2023/04/27 01:18:01;;;;;;;5.20;4.10;;;11.40;88.10;;;;;;5009184;28;20226;-64
2023/04/27 01:20:31;;;;;;;7.07;3.70;;;11.40;88.60;;;;;;5007116;28;20223;-64
2023/04/27 01:22:58;;;;;;;4.10;3.60;;;11.30;88.90;;;;;;5000119;28;20653;-64
2023/04/27 01:25:25;;;;;;;6.07;3.67;;;11.30;89.10;;;;;;5009136;28;20299;-64
2023/04/27 01:27:53;;;;;;;5.80;3.87;;;11.30;89.10;;;;;;5001066;28;20296;-64
2023/04/27 01:30:23;;;;;;;3.70;3.30;;;11.30;88.90;;;;;;5034245;28;20230;-64
2023/04/27 01:32:50;;;;;;;4.73;4.03;;;11.30;88.90;;;;;;5002313;28;20261;-64
2023/04/27 01:35:18;;;;;;;4.07;3.53;;;11.30;88.90;;;;;;5010336;28;20203;-65
2023/04/27 01:37:45;;;;;;;4.73;3.70;;;11.30;88.90;;;;;;5034384;28;20736;-65
2023/04/27 01:40:13;;;;;;;5.37;3.70;;;11.20;88.80;;;;;;5000871;28;20650;-64
2023/04/27 01:42:40;;;;;;;4.90;4.40;;;11.20;88.70;;;;;;5003787;28;20263;-65
2023/04/27 01:45:08;;;;;;;5.80;3.00;;;11.20;88.90;;;;;;5037617;28;20222;-64
2023/04/27 01:47:35;;;;;;;3.50;3.20;;;11.20;88.90;;;;;;5003577;28;20235;-64
2023/04/27 01:50:02;;;;;;;5.73;4.07;;;11.10;87.90;;;;;;5036142;28;20214;-64
2023/04/27 01:52:30;;;;;;;4.20;3.80;;;11.10;88.10;;;;;;5004243;28;20199;-64
2023/04/27 01:54:57;;;;;;;4.30;3.53;;;11.00;88.90;;;;;;5020140;28;20224;-64
2023/04/27 01:57:25;;;;;;;5.53;3.77;;;11.00;89.30;;;;;;5036056;28;20538;-64
2023/04/27 01:59:54;;;;;;;4.40;3.97;;;11.00;89.30;;;;;;5007052;28;20214;-64
2023/04/27 02:02:21;;;;;;;5.47;4.63;;;11.00;89.50;;;;;;5004508;28;20207;-64
2023/04/27 02:04:48;;;;;;;5.77;4.53;;;11.00;90.00;;;;;;5014020;28;20203;-64
2023/04/27 02:07:15;;;;;;;5.00;4.40;;;11.00;90.10;;;;;;5009910;28;20238;-64
2023/04/27 02:09:42;;;;;;;6.10;4.43;;;11.00;90.10;;;;;;4999992;28;20206;-64
2023/04/27 02:12:12;;;;;;;7.13;6.10;;;11.00;90.10;;;;;;5009076;28;20277;-64
2023/04/27 02:14:39;;;;;;;5.83;5.07;;;11.00;90.20;;;;;;5011329;28;20634;-64
2023/04/27 02:17:06;;;;;;;5.63;5.03;;;11.00;90.30;;;;;;5008214;28;20294;-65
2023/04/27 02:19:33;;;;;;;8.17;5.73;;;11.00;90.30;;;;;;5004560;28;20208;-64
2023/04/27 02:22:00;;;;;;;5.40;4.77;;;11.00;90.40;;;;;;5006246;28;20208;-64
2023/04/27 02:24:27;;;;;;;7.17;4.57;;;11.00;90.60;;;;;;5009908;28;20213;-65
2023/04/27 02:26:54;;;;;;;6.77;5.20;;;11.00;90.60;;;;;;5035073;28;20203;-64
2023/04/27 02:29:21;;;;;;;6.93;5.77;;;11.00;90.60;;;;;;5002262;28;20199;-64
2023/04/27 02:31:48;;;;;;;6.63;5.93;;;11.00;90.70;;;;;;5022170;28;20227;-64
2023/04/27 02:34:15;;;;;;;9.27;5.20;;;11.00;90.80;;;;;;4998260;28;20432;-64
2023/04/27 02:36:42;;;;;;;4.83;3.97;;;11.00;90.80;;;;;;5035789;28;20667;-64
2023/04/27 02:39:10;;;;;;;6.00;5.00;;;11.00;90.80;;;;;;5002827;28;20697;-64
2023/04/27 02:41:37;;;;;;;7.30;5.67;;;11.00;90.60;;;;;;5006360;28;20203;-64
2023/04/27 02:44:04;;;;;;;7.40;5.33;;;10.90;90.60;;;;;;5010056;28;20643;-64
2023/04/27 02:46:31;;;;;;;6.83;5.63;;;10.90;90.60;;;;;;4996444;28;20215;-64
2023/04/27 02:48:58;;;;;;;7.57;6.03;;;10.90;90.60;;;;;;5038189;28;20243;-64
2023/04/27 02:51:26;;;;;;;8.57;5.47;;;10.90;90.60;;;;;;5001265;28;20274;-64
2023/04/27 02:53:53;;;;;;;6.60;5.90;;;10.80;90.70;;;;;;5035465;28;20597;-65
2023/04/27 02:56:20;;;;;;;8.60;5.23;;;10.80;90.70;;;;;;5009594;28;20521;-64
2023/04/27 02:58:47;;;;;;;5.80;5.10;;;10.80;90.80;;;;;;5038266;28;20273;-64
2023/04/27 03:01:16;;;;;;;7.73;5.30;;;10.80;90.80;;;;;;5006545;28;20207;-64
2023/04/27 03:03:46;;;;;;;7.27;5.50;;;10.80;90.70;;;;;;5005653;28;20604;-64
2023/04/27 03:06:14;;;;;;;9.67;5.47;;;10.70;90.70;;;;;;5008231;28;20207;-65
2023/04/27 03:08:41;;;;;;;10.47;5.47;;;10.70;90.70;;;;;;5006495;28;20212;-64
2023/04/27 03:11:08;;;;;;;5.43;4.87;;;10.70;90.70;;;;;;5002191;28;20227;-64
2023/04/27 03:13:40;;;;;;;6.07;5.10;;;10.70;90.70;;;;;;5015744;28;20649;-64
2023/04/27 03:16:10;;;;;;;5.33;4.80;;;10.60;90.70;;;;;;5005691;28;20209;-64
2023/04/27 03:18:38;;;;;;;5.17;4.60;;;10.60;91.00;;;;;;5037402;28;20223;-64
2023/04/27 03:21:05;;;;;;;4.93;4.37;;;10.60;90.70;;;;;;5004679;28;20228;-64
2023/04/27 03:23:32;;;;;;;5.60;4.07;;;10.60;91.00;;;;;;5006157;28;20294;-64
2023/04/27 03:26:04;;;;;;;4.13;3.23;;;10.60;90.60;;;;;;5008360;28;20674;-64
2023/04/27 03:28:31;;;;;;;5.17;3.73;;;10.50;90.40;;;;;;5007997;28;20696;-64
2023/04/27 03:30:59;;;;;;;4.70;4.30;;;10.40;90.10;;;;;;5006135;28;20218;-64
2023/04/27 03:33:27;;;;;;;6.53;4.33;;;10.30;89.90;;;;;;5002603;28;20617;-64
2023/04/27 03:35:55;;;;;;;4.80;4.37;;;10.30;90.00;;;;;;5003940;28;20274;-64
2023/04/27 03:38:26;;;;;;;5.63;5.00;;;10.30;90.10;;;;;;5003363;28;20204;-64
2023/04/27 03:40:53;;;;;;;8.77;5.73;;;10.30;90.30;;;;;;5008601;28;20278;-64
2023/04/27 03:43:21;;;;;;;6.13;5.00;;;10.20;90.50;;;;;;5006456;28;20307;-64
2023/04/27 03:45:48;;;;;;;8.60;5.57;;;10.20;90.50;;;;;;5041619;28;21679;-65
2023/04/27 03:48:16;;;;;;;12.13;6.43;;;10.20;90.60;;;;;;5007642;28;20559;-65
2023/04/27 03:50:45;;;;;;;8.37;5.47;;;10.20;90.70;;;;;;5014513;28;20639;-64
2023/04/27 03:53:13;;;;;;;6.73;5.77;;;10.20;90.80;;;;;;5036329;28;20681;-64
2023/04/27 03:55:41;;;;;;;11.17;6.23;;;10.20;90.80;;;;;;5005914;28;20597;-64
2023/04/27 03:58:10;;;;;;;8.37;6.43;;;10.20;90.80;;;;;;5014860;28;20522;-64
2023/04/27 04:00:45;;;;;;;6.20;5.60;;;10.20;90.90;;;;;;5034775;28;20217;-64
2023/04/27 04:03:12;;;;;;;7.30;5.87;;;10.20;90.90;;;;;;5037255;28;20218;-64
2023/04/27 04:05:40;;;;;;;8.30;5.83;;;10.20;90.90;;;;;;5009113;28;20194;-64
2023/04/27 04:08:07;;;;;;;9.87;6.37;;;10.20;91.00;;;;;;5003786;28;20217;-64
2023/04/27 04:10:34;;;;;;;8.60;5.80;;;10.10;91.00;;;;;;5007159;28;20199;-64
2023/04/27 04:13:01;;;;;;;7.13;5.30;;;10.10;91.10;;;;;;5037519;28;20250;-64
2023/04/27 04:15:28;;;;;;;8.80;5.40;;;10.10;91.10;;;;;;5034315;28;20199;-64
2023/04/27 04:17:55;;;;;;;10.47;6.27;;;10.10;91.10;;;;;;5038599;28;20214;-64
2023/04/27 04:20:22;;;;;;;8.30;5.87;;;10.10;91.10;;;;;;5030048;28;20207;-64
2023/04/27 04:22:49;;;;;;;8.23;6.43;;;10.10;91.10;;;;;;5009793;28;20207;-64
2023/04/27 04:25:16;;;;;;;7.70;6.23;;;10.10;91.10;;;;;;5014338;28;20260;-65
2023/04/27 04:27:43;;;;;;;6.67;5.27;;;10.10;91.20;;;;;;5014702;28;20559;-65
2023/04/27 04:30:11;;;;;;;6.87;5.93;;;10.10;91.20;;;;;;5039598;28;20505;-64
2023/04/27 04:32:39;;;;;;;7.10;5.50;;;10.10;91.20;;;;;;5005581;28;20426;-64
2023/04/27 04:35:06;;;;;;;8.17;5.50;;;10.10;91.10;;;;;;5004105;28;20570;-64
2023/04/27 04:37:34;;;;;;;7.70;4.93;;;10.00;91.20;;;;;;5007479;28;20213;-65
2023/04/27 04:40:09;;;;;;;5.00;4.50;;;10.00;91.20;;;;;;5024337;28;20199;-64
2023/04/27 04:42:37;;;;;;;5.10;4.60;;;10.00;91.30;;;;;;5037609;28;20591;-65
2023/04/27 04:45:07;;;;;;;5.97;5.03;;;10.10;91.30;;;;;;5008378;28;20533;-64
2023/04/27 04:47:35;;;;;;;6.10;5.03;;;10.10;91.30;;;;;;5010271;28;20246;-65
2023/04/27 04:50:02;;;;;;;8.80;5.20;;;10.10;91.20;;;;;;5002795;28;20211;-64
2023/04/27 04:52:30;;;;;;;6.70;5.30;;;10.10;91.10;;;;;;5010174;28;20214;-64
2023/04/27 04:54:57;;;;;;;5.93;5.13;;;10.10;91.10;;;;;;5001318;28;20304;-64
2023/04/27 04:57:25;;;;;;;5.00;4.50;;;10.20;91.10;;;;;;5011747;28;20205;-65
2023/04/27 04:59:52;;;;;;;6.00;4.30;;;10.20;91.10;;;;;;5012533;28;20310;-65
2023/04/27 05:02:19;;;;;;;5.77;4.60;;;10.20;91.10;;;;;;5009309;28;20214;-65
2023/04/27 05:04:47;;;;;;;5.73;5.10;;;10.30;91.10;;;;;;5009811;28;20203;-65
2023/04/27 05:07:16;;;;;;;8.87;5.40;;;10.30;91.20;;;;;;5004887;28;20243;-65
2023/04/27 05:09:49;;;;;;;6.43;5.23;;;10.40;91.20;;;;;;5001582;28;20649;-64
2023/04/27 05:12:16;;;;;;;5.77;5.13;;;10.40;91.20;;;;;;5003256;28;20224;-65
2023/04/27 05:14:43;;;;;;;6.23;5.07;;;10.50;91.30;;;;;;5001761;28;20291;-65
2023/04/27 05:17:10;;;;;;;8.03;5.97;;;10.60;91.30;;;;;;5007990;28;20229;-64
2023/04/27 05:19:37;;;;;;;6.67;5.80;;;10.70;91.40;;;;;;5003607;28;20200;-65
2023/04/27 05:22:04;;;;;;;5.93;4.63;;;10.80;91.40;;;;;;5004270;28;20211;-64
2023/04/27 05:24:32;;;;;;;6.83;6.13;;;10.90;91.40;;;;;;5003319;28;20278;-65
2023/04/27 05:26:58;;;;;;;6.80;5.47;;;10.90;91.40;;;;;;4998589;28;20235;-64
2023/04/27 05:29:28;;;;;;;5.57;4.97;;;11.10;91.30;;;;;;5001907;28;20208;-64
2023/04/27 05:31:55;;;;;;;7.53;5.53;;;11.20;91.30;;;;;;5040084;28;20406;-64
2023/04/27 05:34:22;;;;;;;10.03;5.50;;;11.30;91.30;;;;;;5004826;28;20673;-65
2023/04/27 05:36:49;;;;;;;12.10;5.90;;;11.40;91.30;;;;;;5038413;28;20236;-65
2023/04/27 05:39:16;;;;;;;6.53;5.53;;;11.60;91.40;;;;;;5008241;28;20844;-64
2023/04/27 05:41:43;;;;;;;8.00;6.27;;;11.80;91.40;;;;;;5004834;28;20202;-64
2023/04/27 05:44:10;;;;;;;6.47;5.40;;;11.90;91.40;;;;;;5002960;28;20242;-64
2023/04/27 05:46:37;;;;;;;6.73;6.03;;;12.10;91.40;;;;;;5004049;28;20204;-64
2023/04/27 05:49:04;;;;;;;6.80;6.10;;;12.30;91.50;;;;;;5003677;28;20609;-64
2023/04/27 05:51:32;;;;;;;10.00;5.80;;;12.50;91.50;;;;;;5005581;28;20227;-64
2023/04/27 05:54:00;;;;;;;8.33;6.20;;;12.70;91.40;;;;;;5003903;28;20195;-65
2023/04/27 05:56:28;;;;;;;11.23;6.07;;;12.90;91.30;;;;;;5003116;28;20239;-64
2023/04/27 05:58:54;;;;;;;8.70;5.80;;;13.10;91.30;;;;;;5003451;28;20646;-64
2023/04/27 06:01:22;;;;;;;8.20;6.30;;;13.20;91.20;;;;;;5000425;28;20196;-64
2023/04/27 06:03:49;;;;;;;7.17;6.47;;;13.40;91.10;;;;;;5003647;28;20191;-64
2023/04/27 06:06:17;;;;;;;9.33;7.10;;;13.60;91.00;;;;;;5002199;28;20878;-64
2023/04/27 06:08:44;;;;;;;9.97;6.50;;;13.70;90.90;;;;;;5009283;28;20300;-64
2023/04/27 06:11:11;;;;;;;7.03;6.13;;;13.90;90.80;;;;;;5005807;28;20227;-64
2023/04/27 06:13:37;;;;;;;7.40;6.70;;;14.00;90.60;;;;;;5005853;28;20579;-65
2023/04/27 06:16:04;;;;;;;9.63;6.47;;;14.10;90.50;;;;;;4999883;28;20254;-65
2023/04/27 06:18:32;;;;;;;6.80;6.10;;;14.30;90.30;;;;;;5002200;28;20231;-65
2023/04/27 06:21:00;;;;;;;7.80;6.27;;;14.40;90.40;;;;;;5001512;28;20266;-64
2023/04/27 06:23:28;;;;;;;6.93;6.33;;;14.50;90.30;;;;;;5006499;28;20210;-65
2023/04/27 06:25:55;;;;;;;8.50;6.60;;;14.70;90.20;;;;;;5002122;28;20234;-64
2023/04/27 06:28:22;;;;;;;7.07;6.37;;;14.90;90.20;;;;;;5003475;28;20676;-64
2023/04/27 06:30:49;;;;;;;9.80;6.90;;;14.90;90.10;;;;;;5000711;28;20200;-64
2023/04/27 06:33:16;;;;;;;7.67;6.67;;;15.10;89.90;;;;;;5007500;28;20217;-64
2023/04/27 06:35:44;;;;;;;8.27;6.70;;;15.20;89.60;;;;;;5002424;28;20648;-64
2023/04/27 06:38:13;;;;;;;9.17;6.37;;;15.40;89.40;;;;;;4999929;28;20210;-64
2023/04/27 06:40:40;;;;;;;7.30;5.60;;;15.50;89.30;;;;;;5007762;28;20310;-64
2023/04/27 06:43:07;;;;;;;7.43;6.43;;;15.70;89.20;;;;;;4999593;28;20205;-64
2023/04/27 06:45:34;;;;;;;7.47;6.70;;;15.80;88.90;;;;;;5007806;28;20220;-64
2023/04/27 06:48:02;;;;;;;6.97;6.33;;;16.00;88.50;;;;;;5005006;28;20326;-64
2023/04/27 06:50:29;;;;;;;6.47;5.87;;;16.20;87.90;;;;;;5010482;28;20226;-64
2023/04/27 06:52:56;;;;;;;7.83;6.33;;;16.30;87.30;;;;;;5003082;28;20619;-65
2023/04/27 06:55:23;;;;;;;6.60;6.00;;;16.50;87.50;;;;;;5005649;28;20208;-65
2023/04/27 06:57:50;;;;;;;7.83;6.10;;;16.60;86.40;;;;;;5003699;28;20204;-62
2023/04/27 07:00:18;;;;;;;8.47;6.13;;;16.80;86.20;;;;;;4998991;28;20286;-63
2023/04/27 07:02:45;;;;;;;6.93;6.23;;;16.90;85.50;;;;;;4998582;28;20201;-64
2023/04/27 07:05:13;;;;;;;10.23;6.00;;;17.00;84.10;;;;;;5020736;28;20239;-64
2023/04/27 07:07:40;;;;;;;6.27;5.67;;;17.00;84.30;;;;;;4998447;28;20205;-63
2023/04/27 07:10:08;;;;;;;6.70;5.93;;;17.10;84.30;;;;;;5005766;28;20247;-67
2023/04/27 07:12:35;;;;;;;6.30;5.43;;;17.20;84.60;;;;;;5002245;28;20261;-62
2023/04/27 07:15:05;;;;;;;6.43;5.83;;;17.30;84.70;;;;;;5000492;28;20283;-66
2023/04/27 07:17:32;;;;;;;5.97;5.37;;;17.40;84.40;;;;;;5005636;28;20551;-66
2023/04/27 07:20:04;;;;;;;5.97;5.47;;;17.60;83.60;;;;;;5002123;28;20199;-62
2023/04/27 07:22:32;;;;;;;6.03;5.07;;;17.70;83.40;;;;;;5000929;28;20520;-61
2023/04/27 07:24:59;;;;;;;6.80;5.83;;;17.80;83.10;;;;;;5001479;28;20260;-63
2023/04/27 07:27:26;;;;;;;7.77;5.33;;;18.00;83.00;;;;;;5004432;28;20274;-67
2023/04/27 07:29:53;;;;;;;6.00;5.13;;;18.10;82.80;;;;;;5005847;28;20285;-63
2023/04/27 07:32:21;;;;;;;5.27;4.77;;;18.30;81.90;;;;;;5000994;28;20214;-62
2023/04/27 07:34:49;;;;;;;6.83;4.90;;;18.30;80.90;;;;;;5001692;28;20203;-62
2023/04/27 07:37:21;;;;;;;8.50;5.30;;;18.40;81.30;;;;;;5001617;28;20209;-68
2023/04/27 07:39:51;;;;;;;6.30;5.40;;;18.50;81.10;;;;;;4998634;28;20201;-64
2023/04/27 07:42:21;;;;;;;8.37;4.90;;;18.60;80.40;;;;;;4999069;28;20201;-64
2023/04/27 07:44:49;;;;;;;5.83;5.33;;;18.70;80.80;;;;;;4998019;28;20242;-61
2023/04/27 07:47:19;;;;;;;5.10;4.00;;;18.90;80.90;;;;;;5008421;28;20247;-63
2023/04/27 07:49:46;;;;;;;5.00;4.53;;;19.10;78.20;;;;;;5025506;28;20215;-62
2023/04/27 07:52:14;;;;;;;4.27;3.87;;;19.20;76.50;;;;;;5007321;28;20220;-62
2023/04/27 07:54:42;;;;;;;3.30;3.00;;;19.30;77.60;;;;;;5005632;28;20206;-63
2023/04/27 07:57:10;;;;;;;5.63;3.17;;;19.50;76.90;;;;;;5003072;28;20211;-63
2023/04/27 07:59:37;;;;;;;3.30;3.00;;;19.70;75.80;;;;;;5003206;28;20222;-62
2023/04/27 08:02:05;;;;;;;3.13;2.83;;;19.80;74.20;;;;;;5007202;28;20196;-66
2023/04/27 08:04:46;;;;;;;3.70;3.30;;;20.00;73.30;;;;;;5005138;28;20205;-62
2023/04/27 08:07:17;;;;;;;3.77;3.00;;;20.20;72.10;;;;;;5006919;28;20231;-63
2023/04/27 08:09:45;;;;;;;3.20;2.87;;;20.30;68.60;;;;;;5007190;28;20228;-63
2023/04/27 08:12:12;;;;;;;4.07;2.97;;;20.30;69.60;;;;;;5002398;28;20224;-62
2023/04/27 08:14:39;;;;;;;4.77;3.07;;;20.40;68.40;;;;;;5006040;28;20211;-62
2023/04/27 08:17:06;;;;;;;3.43;3.13;;;20.50;67.70;;;;;;5013313;28;20200;-64
2023/04/27 08:19:33;;;;;;;3.83;2.43;;;20.60;67.40;;;;;;5003204;28;20204;-64
2023/04/27 08:22:00;;;;;;;4.87;2.80;;;20.70;67.00;;;;;;5002363;28;20878;-61
2023/04/27 08:24:27;;;;;;;3.27;2.57;;;20.80;66.70;;;;;;5012514;28;20200;-64
2023/04/27 08:26:54;;;;;;;3.30;2.40;;;20.90;66.10;;;;;;5007790;28;20293;-62
2023/04/27 08:29:21;;;;;;;3.93;2.90;;;21.00;65.50;;;;;;5005098;28;20543;-64
2023/04/27 08:31:57;;;;;;;5.07;2.63;;;21.10;62.50;;;;;;5033004;28;20287;-62
2023/04/27 08:34:25;;;;;;;3.43;2.63;;;21.10;63.70;;;;;;5005125;28;20209;-62
2023/04/27 08:36:55;;;;;;;3.50;2.70;;;21.10;62.00;;;;;;5005960;28;20235;-63
2023/04/27 08:39:23;;;;;;;4.70;2.87;;;21.10;63.40;;;;;;5006755;28;20200;-62
2023/04/27 08:41:51;;;;;;;7.00;3.00;;;21.20;64.40;;;;;;5007519;28;20574;-61
2023/04/27 08:44:18;;;;;;;3.40;2.70;;;21.30;65.10;;;;;;5005723;28;20236;-63
2023/04/27 08:46:45;;;;;;;2.63;2.10;;;21.40;65.00;;;;;;5004664;28;20264;-65
2023/04/27 08:49:12;;;;;;;3.30;2.53;;;21.50;62.60;;;;;;5005958;28;20220;-65
2023/04/27 08:51:42;;;;;;;4.37;2.50;;;21.50;62.50;;;;;;5000411;28;20196;-62
2023/04/27 08:54:09;;;;;;;3.80;2.63;;;21.60;62.70;;;;;;5006586;28;20228;-63
2023/04/27 08:56:37;;;;;;;3.63;2.67;;;21.70;61.80;;;;;;5004832;28;20204;-61
2023/04/27 08:59:16;;;;;;;2.50;2.30;;;21.90;61.20;;;;;;5005060;28;20290;-62
2023/04/27 09:01:47;;;;;;;4.73;2.53;;;22.00;62.10;;;;;;5005070;28;20290;-64
2023/04/27 09:04:16;;;;;;;2.60;2.00;;;22.10;58.50;;;;;;5036274;28;20607;-61
2023/04/27 09:06:43;;;;;;;2.30;2.10;;;22.10;56.50;;;;;;5007232;28;20219;-61
2023/04/27 09:09:21;;;;;;;2.70;2.03;;;22.00;57.90;;;;;;5005568;28;20204;-63
2023/04/27 09:11:48;;;;;;;2.30;1.67;;;22.10;59.30;;;;;;5006150;28;20214;-61
2023/04/27 09:14:21;;;;;;;4.00;1.80;;;22.20;58.70;;;;;;5004994;28;20674;-61
2023/04/27 09:16:58;;;;;;;2.23;1.43;;;22.30;58.80;;;;;;5003174;28;20197;-63
2023/04/27 09:19:27;;;;;;;3.40;1.80;;;22.50;57.80;;;;;;5003098;28;20192;-63
2023/04/27 09:22:14;;;;;;;3.20;2.10;;;22.70;57.00;;;;;;5007333;28;20518;-63
2023/04/27 09:24:51;;;;;;;2.97;1.70;;;22.80;57.00;;;;;;5021593;28;20200;-63
2023/04/27 09:27:20;;;;;;;2.00;1.70;;;22.90;56.40;;;;;;5004023;28;20195;-62
2023/04/27 09:33:07;;;;;;;3.20;1.67;;;23.10;56.20;;;;;;5007582;28;20230;-63
2023/04/27 09:36:24;;;;;;;2.47;1.70;;;23.20;55.00;;;;;;5009492;28;20188;-64
2023/04/27 09:38:52;;;;;;;3.60;1.67;;;23.20;55.20;;;;;;5007756;28;20512;-62
2023/04/27 09:41:19;;;;;;;3.07;1.80;;;23.20;54.20;;;;;;5002531;28;20259;-63
2023/04/27 09:43:46;;;;;;;3.00;1.70;;;23.30;52.20;;;;;;5004931;28;20227;-63
2023/04/27 09:46:13;;;;;;;2.47;1.20;;;23.20;53.50;;;;;;5004246;28;20250;-64
2023/04/27 09:48:41;;;;;;;1.80;1.33;;;23.10;52.40;;;;;;5000204;28;20294;-63
2023/04/27 09:51:59;;;;;;;2.13;1.77;;;23.10;52.40;;;;;;5016188;28;20627;-62
2023/04/27 09:54:31;;;;;;;1.73;1.47;;;23.00;52.80;;;;;;5000662;28;20208;-63
2023/04/27 09:57:12;;;;;;;3.00;1.30;;;23.00;53.60;;;;;;5005741;28;20210;-64
2023/04/27 09:59:45;;;;;;;3.00;1.70;;;23.20;54.40;;;;;;5003632;28;20203;-61
2023/04/27 10:02:15;;;;;;;4.07;1.60;;;23.30;51.50;;;;;;4999259;28;20215;-65
2023/04/27 10:05:29;;;;;;;1.87;1.37;;;23.20;51.50;;;;;;5006288;28;20200;-62
2023/04/27 10:07:56;;;;;;;3.77;1.30;;;23.20;52.50;;;;;;5007046;28;20200;-67
2023/04/27 10:10:23;;;;;;;4.07;1.40;;;23.40;53.30;;;;;;5004963;28;20625;-63
2023/04/27 10:13:02;;;;;;;1.77;1.43;;;23.50;51.00;;;;;;5007563;28;20249;-62
2023/04/27 10:15:29;;;;;;;1.97;1.20;;;23.30;49.40;;;;;;4999495;28;20519;-62
2023/04/27 10:18:03;;;;;;;1.47;1.17;;;23.30;50.90;;;;;;5004110;28;20258;-60
2023/04/27 10:20:35;;;;;;;3.50;1.00;;;23.30;50.70;;;;;;5004297;28;20558;-64
2023/04/27 10:23:02;;;;;;;1.37;0.90;;;23.30;49.90;;;;;;4999489;28;20522;-64
2023/04/27 10:25:39;;;;;;;1.40;0.90;;;23.30;48.60;;;;;;5001919;28;20215;-63
2023/04/27 10:28:09;;;;;;;0.83;0.83;;;23.30;49.90;;;;;;5002552;28;20211;-65
2023/04/27 10:30:37;;;;;;;1.87;1.00;;;23.40;48.90;;;;;;5019746;28;20226;-61
2023/04/27 10:33:09;;;;;;;2.00;0.90;;;23.60;48.40;;;;;;5006491;28;20236;-64
2023/04/27 10:35:38;;;;;;;0.80;0.80;;;23.80;48.40;;;;;;5001488;28;20208;-64
2023/04/27 10:38:20;;;;;;;1.67;0.97;;;23.90;48.30;;;;;;5010125;28;20212;-64
2023/04/27 10:41:02;;;;;;;3.40;1.03;;;23.90;47.20;;;;;;5006790;28;20287;-62
2023/04/27 10:43:31;;;;;;;1.57;1.00;;;23.80;48.40;;;;;;5005451;28;20206;-61
2023/04/27 10:46:14;;;;;;;1.93;0.60;;;23.70;48.70;;;;;;5005997;28;20571;-63
2023/04/27 10:48:43;;;;;;;2.37;1.00;;;23.80;49.90;;;;;;5007952;28;20239;-63
2023/04/27 10:51:14;;;;;;;1.00;0.90;;;23.90;48.80;;;;;;5005253;28;20204;-62
2023/04/27 10:53:41;;;;;;;1.40;0.93;;;24.00;49.10;;;;;;5004019;28;20216;-62
2023/04/27 10:56:09;;;;;;;1.23;1.00;;;24.00;47.90;;;;;;5001657;28;20303;-65
2023/04/27 10:58:37;;;;;;;1.23;0.80;;;24.00;48.60;;;;;;5001639;28;20278;-63
2023/04/27 11:01:28;;;;;;;2.13;1.10;;;24.00;48.90;;;;;;5004933;28;20263;-64
2023/04/27 11:03:56;;;;;;;2.30;1.03;;;24.10;48.30;;;;;;5004679;28;20199;-63
2023/04/27 11:06:23;;;;;;;2.50;1.13;;;24.00;48.30;;;;;;5000416;28;20214;-64
2023/04/27 11:08:50;;;;;;;1.00;0.87;;;23.90;50.00;;;;;;5005286;28;20223;-64
2023/04/27 11:11:18;;;;;;;1.00;1.00;;;24.00;51.50;;;;;;5004438;28;20204;-63
2023/04/27 11:13:48;;;;;;;2.87;1.20;;;24.00;51.20;;;;;;5006662;28;20230;-63
2023/04/27 11:16:15;;;;;;;0.90;0.90;;;24.00;51.20;;;;;;5002962;28;20195;-64
2023/04/27 11:18:42;;;;;;;1.93;1.10;;;24.10;51.60;;;;;;5000186;28;20200;-62
2023/04/27 11:21:19;;;;;;;2.13;0.90;;;24.20;52.10;;;;;;5006777;28;20281;-65
2023/04/27 11:23:46;;;;;;;1.67;1.00;;;24.30;49.40;;;;;;5005266;28;20582;-65
2023/04/27 11:26:18;;;;;;;1.53;1.10;;;24.30;50.90;;;;;;5007354;28;20280;-65
2023/04/27 11:28:58;;;;;;;2.53;0.97;;;24.20;49.30;;;;;;5008376;28;20201;-64
2023/04/27 11:31:38;;;;;;;2.73;1.00;;;24.20;50.70;;;;;;5006772;28;20203;-65
2023/04/27 11:34:07;;;;;;;1.57;1.10;;;24.20;50.10;;;;;;5019725;28;20259;-65
2023/04/27 11:36:34;;;;;;;1.43;0.77;;;24.20;50.10;;;;;;5007623;28;20192;-65
2023/04/27 11:39:05;;;;;;;0.77;0.77;;;24.20;48.70;;;;;;5003259;28;20201;-64
2023/04/27 11:41:36;;;;;;;1.03;0.67;;;24.10;49.30;;;;;;5007085;28;20206;-65
2023/04/27 11:44:07;;;;;;;2.33;1.10;;;24.00;47.80;;;;;;5001446;28;20212;-65
2023/04/27 11:46:36;;;;;;;1.77;0.60;;;23.90;48.80;;;;;;5011560;28;20200;-65
2023/04/27 11:49:05;;;;;;;0.60;0.60;;;23.80;50.00;;;;;;5011632;28;20661;-65
2023/04/27 11:51:32;;;;;;;3.27;0.63;;;23.90;49.80;;;;;;5005760;28;20227;-65
2023/04/27 11:54:06;;;;;;;1.03;0.70;;;24.00;49.20;;;;;;5008292;28;20858;-65
2023/04/27 11:56:41;;;;;;;2.33;0.87;;;24.00;47.30;;;;;;5005588;28;20274;-65
2023/04/27 11:59:26;;;;;;;1.97;0.63;;;24.00;48.20;;;;;;5007702;28;20223;-65
2023/04/27 12:01:53;;;;;;;0.60;0.57;;;24.20;48.20;;;;;;5004876;28;20205;-65
2023/04/27 12:04:20;;;;;;;0.97;0.60;;;24.20;45.30;;;;;;5009274;28;20229;-65
2023/04/27 12:06:48;;;;;;;3.10;0.70;;;24.30;46.00;;;;;;5006951;28;20199;-65
2023/04/27 12:09:16;;;;;;;0.50;0.50;;;24.20;45.90;;;;;;5008261;28;20200;-65
2023/04/27 12:11:43;;;;;;;1.93;0.67;;;24.20;46.90;;;;;;5033649;28;20226;-64
2023/04/27 12:14:10;;;;;;;3.80;0.73;;;24.20;46.70;;;;;;5003356;28;20278;-65
2023/04/27 12:16:37;;;;;;;0.87;0.77;;;24.20;45.20;;;;;;5004519;28;20208;-64
2023/04/27 12:19:05;;;;;;;0.70;0.70;;;24.10;45.10;;;;;;5011399;28;20607;-65
2023/04/27 12:21:32;;;;;;;1.33;0.90;;;24.00;45.00;;;;;;5002157;28;20211;-65
2023/04/27 12:23:59;;;;;;;0.40;0.40;;;23.80;44.40;;;;;;5004466;28;20440;-65
2023/04/27 12:26:28;;;;;;;3.13;0.70;;;23.80;45.30;;;;;;5006994;28;20201;-65
2023/04/27 12:28:55;;;;;;;1.50;0.63;;;23.70;45.60;;;;;;5008508;28;20589;-65
2023/04/27 12:31:24;;;;;;;2.40;0.93;;;23.60;45.50;;;;;;5004333;28;20210;-65
2023/04/27 12:33:53;;;;;;;1.30;0.80;;;23.60;45.00;;;;;;5006049;28;20224;-65
2023/04/27 12:36:20;;;;;;;1.73;0.60;;;23.50;45.00;;;;;;5006554;28;20231;-64
2023/04/27 12:38:47;;;;;;;1.00;0.63;;;23.40;45.90;;;;;;5004249;28;20228;-65
2023/04/27 12:41:14;;;;;;;0.90;0.70;;;23.40;47.60;;;;;;5006208;28;20196;-65
2023/04/27 12:43:42;;;;;;;1.20;0.67;;;23.30;46.70;;;;;;5010340;28;20195;-65
2023/04/27 12:46:10;;;;;;;3.77;0.70;;;23.40;47.00;;;;;;5010420;28;20283;-64
2023/04/27 12:48:37;;;;;;;1.17;0.67;;;23.30;47.00;;;;;;4999669;28;20240;-65
2023/04/27 12:51:05;;;;;;;0.53;0.53;;;23.40;47.60;;;;;;5004089;28;20516;-61
2023/04/27 12:53:32;;;;;;;0.70;0.70;;;23.50;47.90;;;;;;5014509;28;20216;-62
2023/04/27 12:56:01;;;;;;;0.70;0.70;;;23.50;46.00;;;;;;5006200;28;20776;-63
2023/04/27 12:58:28;;;;;;;1.20;0.80;;;23.40;47.30;;;;;;5008492;28;20212;-63